sensor_id;sensor_type;location;lat;lon;timestamp;P1;durP1;ratioP1;P2;durP2;ratioP2
75634;SDS011;64227;48.724;9.104;2023-02-03T00:00:06;0.88;;;0.65;;
75634;SDS011;64227;48.724;9.104;2023-02-03T00:02:32;1.55;;;0.80;;
75634;SDS011;64227;48.724;9.104;2023-02-03T00:04:57;1.20;;;0.93;;
75634;SDS011;64227;48.724;9.104;2023-02-03T00:07:22;2.45;;;0.50;;
75634;SDS011;64227;48.724;9.104;2023-02-03T00:09:48;0.80;;;0.65;;
75634;SDS011;64227;48.724;9.104;2023-02-03T00:12:13;1.33;;;0.55;;
75634;SDS011;64227;48.724;9.104;2023-02-03T00:14:38;0.93;;;0.40;;
75634;SDS011;64227;48.724;9.104;2023-02-03T00:17:04;1.00;;;0.60;;
75634;SDS011;64227;48.724;9.104;2023-02-03T00:19:29;0.50;;;0.50;;
75634;SDS011;64227;48.724;9.104;2023-02-03T00:21:55;1.83;;;0.80;;
75634;SDS011;64227;48.724;9.104;2023-02-03T00:24:20;3.63;;;0.40;;
75634;SDS011;64227;48.724;9.104;2023-02-03T00:26:47;0.60;;;0.50;;
75634;SDS011;64227;48.724;9.104;2023-02-03T00:29:13;0.60;;;0.55;;
75634;SDS011;64227;48.724;9.104;2023-02-03T00:31:39;0.82;;;0.30;;
75634;SDS011;64227;48.724;9.104;2023-02-03T00:34:04;0.40;;;0.40;;
75634;SDS011;64227;48.724;9.104;2023-02-03T00:36:30;0.57;;;0.30;;
75634;SDS011;64227;48.724;9.104;2023-02-03T00:38:55;2.30;;;0.80;;
75634;SDS011;64227;48.724;9.104;2023-02-03T00:41:20;0.85;;;0.30;;
75634;SDS011;64227;48.724;9.104;2023-02-03T00:43:46;0.60;;;0.40;;
75634;SDS011;64227;48.724;9.104;2023-02-03T00:46:11;0.40;;;0.40;;
75634;SDS011;64227;48.724;9.104;2023-02-03T00:48:37;0.88;;;0.30;;
75634;SDS011;64227;48.724;9.104;2023-02-03T00:51:02;0.43;;;0.38;;
75634;SDS011;64227;48.724;9.104;2023-02-03T00:53:28;0.25;;;0.25;;
75634;SDS011;64227;48.724;9.104;2023-02-03T00:55:53;0.20;;;0.20;;
75634;SDS011;64227;48.724;9.104;2023-02-03T00:58:18;0.35;;;0.35;;
75634;SDS011;64227;48.724;9.104;2023-02-03T01:00:44;0.52;;;0.43;;
75634;SDS011;64227;48.724;9.104;2023-02-03T01:03:09;0.38;;;0.38;;
75634;SDS011;64227;48.724;9.104;2023-02-03T01:05:35;0.30;;;0.30;;
75634;SDS011;64227;48.724;9.104;2023-02-03T01:08:00;0.20;;;0.20;;
75634;SDS011;64227;48.724;9.104;2023-02-03T01:10:26;0.50;;;0.30;;
75634;SDS011;64227;48.724;9.104;2023-02-03T01:12:52;0.93;;;0.55;;
75634;SDS011;64227;48.724;9.104;2023-02-03T01:15:17;0.90;;;0.63;;
75634;SDS011;64227;48.724;9.104;2023-02-03T01:17:42;0.70;;;0.43;;
75634;SDS011;64227;48.724;9.104;2023-02-03T01:20:08;0.47;;;0.45;;
75634;SDS011;64227;48.724;9.104;2023-02-03T01:22:36;0.88;;;0.47;;
75634;SDS011;64227;48.724;9.104;2023-02-03T01:25:01;0.55;;;0.30;;
75634;SDS011;64227;48.724;9.104;2023-02-03T01:27:27;0.47;;;0.47;;
75634;SDS011;64227;48.724;9.104;2023-02-03T01:29:52;0.63;;;0.50;;
75634;SDS011;64227;48.724;9.104;2023-02-03T01:32:17;0.50;;;0.40;;
75634;SDS011;64227;48.724;9.104;2023-02-03T01:34:43;0.52;;;0.40;;
75634;SDS011;64227;48.724;9.104;2023-02-03T01:37:08;0.40;;;0.40;;
75634;SDS011;64227;48.724;9.104;2023-02-03T01:39:33;1.17;;;0.38;;
75634;SDS011;64227;48.724;9.104;2023-02-03T01:41:59;0.63;;;0.40;;
75634;SDS011;64227;48.724;9.104;2023-02-03T01:44:41;3.00;;;0.50;;
75634;SDS011;64227;48.724;9.104;2023-02-03T01:52:38;1.25;;;0.52;;
75634;SDS011;64227;48.724;9.104;2023-02-03T01:55:06;0.57;;;0.50;;
75634;SDS011;64227;48.724;9.104;2023-02-03T01:57:35;1.10;;;0.50;;
75634;SDS011;64227;48.724;9.104;2023-02-03T02:00:04;0.40;;;0.30;;
75634;SDS011;64227;48.724;9.104;2023-02-03T02:02:30;1.23;;;0.63;;
75634;SDS011;64227;48.724;9.104;2023-02-03T02:05:04;1.10;;;0.80;;
75634;SDS011;64227;48.724;9.104;2023-02-03T02:07:31;0.68;;;0.50;;
75634;SDS011;64227;48.724;9.104;2023-02-03T02:09:58;2.30;;;0.52;;
75634;SDS011;64227;48.724;9.104;2023-02-03T02:12:23;1.15;;;1.02;;
75634;SDS011;64227;48.724;9.104;2023-02-03T02:14:49;1.65;;;0.75;;
75634;SDS011;64227;48.724;9.104;2023-02-03T02:17:27;1.77;;;0.75;;
75634;SDS011;64227;48.724;9.104;2023-02-03T02:22:50;0.60;;;0.57;;
75634;SDS011;64227;48.724;9.104;2023-02-03T02:28:09;2.55;;;0.82;;
75634;SDS011;64227;48.724;9.104;2023-02-03T02:30:47;3.00;;;0.90;;
75634;SDS011;64227;48.724;9.104;2023-02-03T02:38:50;0.75;;;0.55;;
75634;SDS011;64227;48.724;9.104;2023-02-03T02:41:35;2.78;;;0.75;;
75634;SDS011;64227;48.724;9.104;2023-02-03T02:44:07;2.60;;;0.70;;
75634;SDS011;64227;48.724;9.104;2023-02-03T02:49:08;0.95;;;0.88;;
75634;SDS011;64227;48.724;9.104;2023-02-03T02:51:37;2.10;;;0.80;;
75634;SDS011;64227;48.724;9.104;2023-02-03T02:54:04;1.25;;;0.70;;
75634;SDS011;64227;48.724;9.104;2023-02-03T02:56:31;1.58;;;0.60;;
75634;SDS011;64227;48.724;9.104;2023-02-03T02:58:58;1.42;;;0.50;;
75634;SDS011;64227;48.724;9.104;2023-02-03T03:01:25;0.77;;;0.50;;
75634;SDS011;64227;48.724;9.104;2023-02-03T03:03:50;0.80;;;0.80;;
75634;SDS011;64227;48.724;9.104;2023-02-03T03:08:55;0.75;;;0.32;;
75634;SDS011;64227;48.724;9.104;2023-02-03T03:11:28;0.55;;;0.40;;
75634;SDS011;64227;48.724;9.104;2023-02-03T03:13:56;0.50;;;0.50;;
75634;SDS011;64227;48.724;9.104;2023-02-03T03:16:22;1.48;;;0.50;;
75634;SDS011;64227;48.724;9.104;2023-02-03T03:18:50;1.88;;;0.40;;
75634;SDS011;64227;48.724;9.104;2023-02-03T03:21:23;1.13;;;0.50;;
75634;SDS011;64227;48.724;9.104;2023-02-03T03:23:51;0.30;;;0.30;;
75634;SDS011;64227;48.724;9.104;2023-02-03T03:26:21;0.40;;;0.30;;
75634;SDS011;64227;48.724;9.104;2023-02-03T03:28:53;0.25;;;0.22;;
75634;SDS011;64227;48.724;9.104;2023-02-03T03:31:30;0.75;;;0.40;;
75634;SDS011;64227;48.724;9.104;2023-02-03T03:33:56;1.67;;;0.30;;
75634;SDS011;64227;48.724;9.104;2023-02-03T03:36:23;0.47;;;0.30;;
75634;SDS011;64227;48.724;9.104;2023-02-03T03:38:55;0.10;;;0.10;;
75634;SDS011;64227;48.724;9.104;2023-02-03T03:41:29;0.57;;;0.30;;
75634;SDS011;64227;48.724;9.104;2023-02-03T03:44:02;0.43;;;0.20;;
75634;SDS011;64227;48.724;9.104;2023-02-03T03:46:31;0.75;;;0.40;;
75634;SDS011;64227;48.724;9.104;2023-02-03T03:49:07;0.10;;;0.10;;
75634;SDS011;64227;48.724;9.104;2023-02-03T03:51:42;0.10;;;0.10;;
75634;SDS011;64227;48.724;9.104;2023-02-03T03:54:10;0.22;;;0.20;;
75634;SDS011;64227;48.724;9.104;2023-02-03T03:56:39;0.30;;;0.30;;
75634;SDS011;64227;48.724;9.104;2023-02-03T03:59:08;0.90;;;0.20;;
75634;SDS011;64227;48.724;9.104;2023-02-03T04:01:36;0.25;;;0.20;;
75634;SDS011;64227;48.724;9.104;2023-02-03T04:04:02;0.20;;;0.20;;
75634;SDS011;64227;48.724;9.104;2023-02-03T04:06:31;0.10;;;0.10;;
75634;SDS011;64227;48.724;9.104;2023-02-03T04:08:56;0.20;;;0.20;;
75634;SDS011;64227;48.724;9.104;2023-02-03T04:11:21;0.00;;;0.00;;
75634;SDS011;64227;48.724;9.104;2023-02-03T04:14:05;0.20;;;0.20;;
75634;SDS011;64227;48.724;9.104;2023-02-03T04:16:31;1.23;;;0.20;;
75634;SDS011;64227;48.724;9.104;2023-02-03T04:18:56;0.65;;;0.20;;
75634;SDS011;64227;48.724;9.104;2023-02-03T04:21:21;0.28;;;0.10;;
75634;SDS011;64227;48.724;9.104;2023-02-03T04:23:47;0.20;;;0.20;;
75634;SDS011;64227;48.724;9.104;2023-02-03T04:26:12;0.10;;;0.10;;
75634;SDS011;64227;48.724;9.104;2023-02-03T04:28:38;0.13;;;0.13;;
75634;SDS011;64227;48.724;9.104;2023-02-03T04:31:03;0.10;;;0.10;;
75634;SDS011;64227;48.724;9.104;2023-02-03T04:33:28;0.35;;;0.20;;
75634;SDS011;64227;48.724;9.104;2023-02-03T04:35:54;0.20;;;0.20;;
75634;SDS011;64227;48.724;9.104;2023-02-03T04:38:19;0.20;;;0.20;;
75634;SDS011;64227;48.724;9.104;2023-02-03T04:40:45;0.70;;;0.40;;
75634;SDS011;64227;48.724;9.104;2023-02-03T04:43:10;0.25;;;0.25;;
75634;SDS011;64227;48.724;9.104;2023-02-03T04:45:36;0.63;;;0.50;;
75634;SDS011;64227;48.724;9.104;2023-02-03T04:48:02;0.30;;;0.30;;
75634;SDS011;64227;48.724;9.104;2023-02-03T04:50:28;0.47;;;0.40;;
75634;SDS011;64227;48.724;9.104;2023-02-03T04:52:54;0.52;;;0.20;;
75634;SDS011;64227;48.724;9.104;2023-02-03T04:55:19;0.40;;;0.40;;
75634;SDS011;64227;48.724;9.104;2023-02-03T04:57:44;0.80;;;0.47;;
75634;SDS011;64227;48.724;9.104;2023-02-03T05:00:10;0.88;;;0.45;;
75634;SDS011;64227;48.724;9.104;2023-02-03T05:02:36;0.40;;;0.40;;
75634;SDS011;64227;48.724;9.104;2023-02-03T05:05:01;3.08;;;0.75;;
75634;SDS011;64227;48.724;9.104;2023-02-03T05:07:26;0.30;;;0.30;;
75634;SDS011;64227;48.724;9.104;2023-02-03T05:09:52;0.32;;;0.30;;
75634;SDS011;64227;48.724;9.104;2023-02-03T05:12:17;0.50;;;0.35;;
75634;SDS011;64227;48.724;9.104;2023-02-03T05:14:42;0.60;;;0.50;;
75634;SDS011;64227;48.724;9.104;2023-02-03T05:17:07;0.43;;;0.43;;
75634;SDS011;64227;48.724;9.104;2023-02-03T05:19:33;0.40;;;0.40;;
75634;SDS011;64227;48.724;9.104;2023-02-03T05:21:58;0.50;;;0.47;;
75634;SDS011;64227;48.724;9.104;2023-02-03T05:24:23;0.60;;;0.50;;
75634;SDS011;64227;48.724;9.104;2023-02-03T05:26:49;1.40;;;0.57;;
75634;SDS011;64227;48.724;9.104;2023-02-03T05:29:14;0.60;;;0.60;;
75634;SDS011;64227;48.724;9.104;2023-02-03T05:31:39;0.88;;;0.60;;
75634;SDS011;64227;48.724;9.104;2023-02-03T05:34:04;1.33;;;0.70;;
75634;SDS011;64227;48.724;9.104;2023-02-03T05:36:30;0.47;;;0.45;;
75634;SDS011;64227;48.724;9.104;2023-02-03T05:38:55;0.90;;;0.50;;
75634;SDS011;64227;48.724;9.104;2023-02-03T05:41:20;0.83;;;0.67;;
75634;SDS011;64227;48.724;9.104;2023-02-03T05:44:04;0.82;;;0.60;;
75634;SDS011;64227;48.724;9.104;2023-02-03T05:46:30;1.10;;;0.60;;
75634;SDS011;64227;48.724;9.104;2023-02-03T05:48:55;1.35;;;0.60;;
75634;SDS011;64227;48.724;9.104;2023-02-03T05:51:20;1.25;;;0.68;;
75634;SDS011;64227;48.724;9.104;2023-02-03T05:53:45;1.15;;;0.80;;
75634;SDS011;64227;48.724;9.104;2023-02-03T05:56:11;0.73;;;0.52;;
75634;SDS011;64227;48.724;9.104;2023-02-03T05:58:36;0.77;;;0.65;;
75634;SDS011;64227;48.724;9.104;2023-02-03T06:01:01;0.55;;;0.40;;
75634;SDS011;64227;48.724;9.104;2023-02-03T06:03:27;1.95;;;0.75;;
75634;SDS011;64227;48.724;9.104;2023-02-03T06:05:52;2.00;;;0.50;;
75634;SDS011;64227;48.724;9.104;2023-02-03T06:08:17;0.73;;;0.60;;
75634;SDS011;64227;48.724;9.104;2023-02-03T06:10:42;0.50;;;0.50;;
75634;SDS011;64227;48.724;9.104;2023-02-03T06:13:12;0.47;;;0.40;;
75634;SDS011;64227;48.724;9.104;2023-02-03T06:15:39;1.10;;;0.60;;
75634;SDS011;64227;48.724;9.104;2023-02-03T06:18:04;0.60;;;0.55;;
75634;SDS011;64227;48.724;9.104;2023-02-03T06:20:30;1.27;;;0.50;;
75634;SDS011;64227;48.724;9.104;2023-02-03T06:22:55;0.75;;;0.70;;
75634;SDS011;64227;48.724;9.104;2023-02-03T06:25:21;0.50;;;0.50;;
75634;SDS011;64227;48.724;9.104;2023-02-03T06:27:48;0.80;;;0.60;;
75634;SDS011;64227;48.724;9.104;2023-02-03T06:30:13;0.50;;;0.50;;
75634;SDS011;64227;48.724;9.104;2023-02-03T06:32:38;0.80;;;0.60;;
75634;SDS011;64227;48.724;9.104;2023-02-03T06:35:04;1.65;;;0.55;;
75634;SDS011;64227;48.724;9.104;2023-02-03T06:37:29;0.40;;;0.40;;
75634;SDS011;64227;48.724;9.104;2023-02-03T06:39:55;0.47;;;0.40;;
75634;SDS011;64227;48.724;9.104;2023-02-03T06:42:20;0.70;;;0.57;;
75634;SDS011;64227;48.724;9.104;2023-02-03T06:44:45;1.48;;;0.50;;
75634;SDS011;64227;48.724;9.104;2023-02-03T06:47:10;0.70;;;0.60;;
75634;SDS011;64227;48.724;9.104;2023-02-03T06:49:36;1.88;;;0.70;;
75634;SDS011;64227;48.724;9.104;2023-02-03T06:52:01;0.70;;;0.70;;
75634;SDS011;64227;48.724;9.104;2023-02-03T06:54:26;1.88;;;0.82;;
75634;SDS011;64227;48.724;9.104;2023-02-03T06:56:52;1.05;;;0.80;;
75634;SDS011;64227;48.724;9.104;2023-02-03T06:59:17;1.00;;;0.80;;
75634;SDS011;64227;48.724;9.104;2023-02-03T07:01:42;1.00;;;0.70;;
75634;SDS011;64227;48.724;9.104;2023-02-03T07:04:08;1.13;;;0.82;;
75634;SDS011;64227;48.724;9.104;2023-02-03T07:06:34;0.93;;;0.68;;
75634;SDS011;64227;48.724;9.104;2023-02-03T07:09:03;1.75;;;0.50;;
75634;SDS011;64227;48.724;9.104;2023-02-03T07:11:29;0.63;;;0.63;;
75634;SDS011;64227;48.724;9.104;2023-02-03T07:13:55;1.85;;;0.77;;
75634;SDS011;64227;48.724;9.104;2023-02-03T07:16:20;1.08;;;0.80;;
75634;SDS011;64227;48.724;9.104;2023-02-03T07:18:45;1.10;;;0.80;;
75634;SDS011;64227;48.724;9.104;2023-02-03T07:21:11;1.88;;;0.70;;
75634;SDS011;64227;48.724;9.104;2023-02-03T07:23:37;0.75;;;0.63;;
75634;SDS011;64227;48.724;9.104;2023-02-03T07:26:03;1.27;;;0.73;;
75634;SDS011;64227;48.724;9.104;2023-02-03T07:28:33;0.77;;;0.68;;
75634;SDS011;64227;48.724;9.104;2023-02-03T07:33:25;1.00;;;0.70;;
75634;SDS011;64227;48.724;9.104;2023-02-03T07:35:51;1.02;;;0.70;;
75634;SDS011;64227;48.724;9.104;2023-02-03T07:38:17;2.05;;;1.15;;
75634;SDS011;64227;48.724;9.104;2023-02-03T07:40:42;0.98;;;0.70;;
75634;SDS011;64227;48.724;9.104;2023-02-03T07:43:07;1.20;;;0.80;;
75634;SDS011;64227;48.724;9.104;2023-02-03T07:45:33;0.90;;;0.80;;
75634;SDS011;64227;48.724;9.104;2023-02-03T07:47:58;1.35;;;1.10;;
75634;SDS011;64227;48.724;9.104;2023-02-03T07:50:23;0.88;;;0.77;;
75634;SDS011;64227;48.724;9.104;2023-02-03T07:52:49;1.52;;;1.05;;
75634;SDS011;64227;48.724;9.104;2023-02-03T07:55:15;2.33;;;0.93;;
75634;SDS011;64227;48.724;9.104;2023-02-03T07:57:41;1.30;;;0.70;;
75634;SDS011;64227;48.724;9.104;2023-02-03T08:00:08;0.88;;;0.73;;
75634;SDS011;64227;48.724;9.104;2023-02-03T08:02:34;1.77;;;0.95;;
75634;SDS011;64227;48.724;9.104;2023-02-03T08:04:59;0.70;;;0.65;;
75634;SDS011;64227;48.724;9.104;2023-02-03T08:07:25;2.30;;;1.30;;
75634;SDS011;64227;48.724;9.104;2023-02-03T08:09:50;1.42;;;1.20;;
75634;SDS011;64227;48.724;9.104;2023-02-03T08:12:15;3.00;;;1.15;;
75634;SDS011;64227;48.724;9.104;2023-02-03T08:14:41;1.58;;;1.10;;
75634;SDS011;64227;48.724;9.104;2023-02-03T08:17:06;1.70;;;1.20;;
75634;SDS011;64227;48.724;9.104;2023-02-03T08:19:31;1.17;;;1.08;;
75634;SDS011;64227;48.724;9.104;2023-02-03T08:21:57;1.10;;;0.90;;
75634;SDS011;64227;48.724;9.104;2023-02-03T08:24:23;1.20;;;1.10;;
75634;SDS011;64227;48.724;9.104;2023-02-03T08:26:49;1.38;;;0.90;;
75634;SDS011;64227;48.724;9.104;2023-02-03T08:29:14;1.10;;;0.82;;
75634;SDS011;64227;48.724;9.104;2023-02-03T08:31:40;1.27;;;0.90;;
75634;SDS011;64227;48.724;9.104;2023-02-03T08:34:06;1.05;;;0.70;;
75634;SDS011;64227;48.724;9.104;2023-02-03T08:36:31;0.93;;;0.77;;
75634;SDS011;64227;48.724;9.104;2023-02-03T08:38:56;1.95;;;0.85;;
75634;SDS011;64227;48.724;9.104;2023-02-03T08:41:22;0.80;;;0.80;;
75634;SDS011;64227;48.724;9.104;2023-02-03T08:43:47;0.93;;;0.80;;
75634;SDS011;64227;48.724;9.104;2023-02-03T08:46:13;0.70;;;0.70;;
75634;SDS011;64227;48.724;9.104;2023-02-03T08:48:38;1.42;;;0.82;;
75634;SDS011;64227;48.724;9.104;2023-02-03T08:51:14;0.88;;;0.77;;
75634;SDS011;64227;48.724;9.104;2023-02-03T08:53:40;2.17;;;0.80;;
75634;SDS011;64227;48.724;9.104;2023-02-03T08:56:06;1.30;;;1.00;;
75634;SDS011;64227;48.724;9.104;2023-02-03T08:58:32;1.15;;;0.65;;
75634;SDS011;64227;48.724;9.104;2023-02-03T09:01:08;3.17;;;1.00;;
75634;SDS011;64227;48.724;9.104;2023-02-03T09:03:33;1.08;;;0.85;;
75634;SDS011;64227;48.724;9.104;2023-02-03T09:05:59;0.85;;;0.80;;
75634;SDS011;64227;48.724;9.104;2023-02-03T09:08:25;1.42;;;0.75;;
75634;SDS011;64227;48.724;9.104;2023-02-03T09:10:50;2.55;;;0.95;;
75634;SDS011;64227;48.724;9.104;2023-02-03T09:13:15;1.45;;;1.35;;
75634;SDS011;64227;48.724;9.104;2023-02-03T09:15:40;1.00;;;0.90;;
75634;SDS011;64227;48.724;9.104;2023-02-03T09:18:06;2.92;;;1.00;;
75634;SDS011;64227;48.724;9.104;2023-02-03T09:20:31;0.90;;;0.88;;
75634;SDS011;64227;48.724;9.104;2023-02-03T09:22:57;0.88;;;0.75;;
75634;SDS011;64227;48.724;9.104;2023-02-03T09:25:23;0.75;;;0.68;;
75634;SDS011;64227;48.724;9.104;2023-02-03T09:27:48;1.17;;;0.80;;
75634;SDS011;64227;48.724;9.104;2023-02-03T09:30:14;1.00;;;0.90;;
75634;SDS011;64227;48.724;9.104;2023-02-03T09:32:39;2.97;;;0.70;;
75634;SDS011;64227;48.724;9.104;2023-02-03T09:35:04;2.58;;;1.27;;
75634;SDS011;64227;48.724;9.104;2023-02-03T09:37:30;2.63;;;1.10;;
75634;SDS011;64227;48.724;9.104;2023-02-03T09:39:55;1.02;;;0.90;;
75634;SDS011;64227;48.724;9.104;2023-02-03T09:45:07;1.67;;;0.70;;
75634;SDS011;64227;48.724;9.104;2023-02-03T09:47:38;0.70;;;0.70;;
75634;SDS011;64227;48.724;9.104;2023-02-03T09:50:06;0.68;;;0.68;;
75634;SDS011;64227;48.724;9.104;2023-02-03T09:52:37;1.70;;;0.88;;
75634;SDS011;64227;48.724;9.104;2023-02-03T09:57:57;1.25;;;0.82;;
75634;SDS011;64227;48.724;9.104;2023-02-03T10:00:32;2.13;;;1.05;;
75634;SDS011;64227;48.724;9.104;2023-02-03T10:18:57;1.23;;;0.60;;
75634;SDS011;64227;48.724;9.104;2023-02-03T10:21:34;0.90;;;0.70;;
75634;SDS011;64227;48.724;9.104;2023-02-03T10:24:11;0.60;;;0.60;;
75634;SDS011;64227;48.724;9.104;2023-02-03T10:26:39;1.02;;;0.63;;
75634;SDS011;64227;48.724;9.104;2023-02-03T10:29:07;1.13;;;0.50;;
75634;SDS011;64227;48.724;9.104;2023-02-03T10:31:41;0.60;;;0.52;;
75634;SDS011;64227;48.724;9.104;2023-02-03T10:34:14;1.25;;;0.68;;
75634;SDS011;64227;48.724;9.104;2023-02-03T10:39:34;0.80;;;0.70;;
75634;SDS011;64227;48.724;9.104;2023-02-03T10:42:04;1.73;;;0.75;;
75634;SDS011;64227;48.724;9.104;2023-02-03T10:45:03;0.93;;;0.63;;
75634;SDS011;64227;48.724;9.104;2023-02-03T10:50:23;0.63;;;0.50;;
75634;SDS011;64227;48.724;9.104;2023-02-03T10:53:17;0.63;;;0.52;;
75634;SDS011;64227;48.724;9.104;2023-02-03T10:55:43;0.52;;;0.50;;
75634;SDS011;64227;48.724;9.104;2023-02-03T10:58:14;1.40;;;0.68;;
75634;SDS011;64227;48.724;9.104;2023-02-03T11:00:41;0.35;;;0.35;;
75634;SDS011;64227;48.724;9.104;2023-02-03T11:03:19;1.27;;;0.75;;
75634;SDS011;64227;48.724;9.104;2023-02-03T11:06:02;0.30;;;0.30;;
75634;SDS011;64227;48.724;9.104;2023-02-03T11:08:38;0.55;;;0.30;;
75634;SDS011;64227;48.724;9.104;2023-02-03T11:11:06;0.30;;;0.30;;
75634;SDS011;64227;48.724;9.104;2023-02-03T11:13:33;0.38;;;0.28;;
75634;SDS011;64227;48.724;9.104;2023-02-03T11:16:03;0.63;;;0.22;;
75634;SDS011;64227;48.724;9.104;2023-02-03T11:21:20;0.80;;;0.28;;
75634;SDS011;64227;48.724;9.104;2023-02-03T11:23:48;1.10;;;0.38;;
75634;SDS011;64227;48.724;9.104;2023-02-03T11:26:14;0.45;;;0.40;;
75634;SDS011;64227;48.724;9.104;2023-02-03T11:28:44;0.43;;;0.40;;
75634;SDS011;64227;48.724;9.104;2023-02-03T11:31:33;0.40;;;0.40;;
75634;SDS011;64227;48.724;9.104;2023-02-03T11:34:02;1.05;;;0.30;;
75634;SDS011;64227;48.724;9.104;2023-02-03T11:36:30;0.85;;;0.40;;
75634;SDS011;64227;48.724;9.104;2023-02-03T11:39:08;0.30;;;0.20;;
75634;SDS011;64227;48.724;9.104;2023-02-03T11:41:37;0.30;;;0.30;;
75634;SDS011;64227;48.724;9.104;2023-02-03T11:44:10;0.32;;;0.32;;
75634;SDS011;64227;48.724;9.104;2023-02-03T11:46:47;0.70;;;0.32;;
75634;SDS011;64227;48.724;9.104;2023-02-03T11:52:05;0.40;;;0.30;;
75634;SDS011;64227;48.724;9.104;2023-02-03T11:55:15;0.20;;;0.20;;
75634;SDS011;64227;48.724;9.104;2023-02-03T12:06:55;0.40;;;0.40;;
75634;SDS011;64227;48.724;9.104;2023-02-03T12:18:02;0.10;;;0.10;;
75634;SDS011;64227;48.724;9.104;2023-02-03T12:20:40;0.65;;;0.30;;
75634;SDS011;64227;48.724;9.104;2023-02-03T12:23:24;0.65;;;0.20;;
75634;SDS011;64227;48.724;9.104;2023-02-03T12:26:23;0.30;;;0.30;;
75634;SDS011;64227;48.724;9.104;2023-02-03T12:31:26;0.63;;;0.22;;
75634;SDS011;64227;48.724;9.104;2023-02-03T12:34:02;0.22;;;0.20;;
75634;SDS011;64227;48.724;9.104;2023-02-03T12:36:36;0.40;;;0.30;;
75634;SDS011;64227;48.724;9.104;2023-02-03T12:39:13;0.20;;;0.20;;
75634;SDS011;64227;48.724;9.104;2023-02-03T12:41:46;0.10;;;0.10;;
75634;SDS011;64227;48.724;9.104;2023-02-03T12:44:19;0.55;;;0.22;;
75634;SDS011;64227;48.724;9.104;2023-02-03T12:47:10;0.95;;;0.30;;
75634;SDS011;64227;48.724;9.104;2023-02-03T12:49:54;0.20;;;0.20;;
75634;SDS011;64227;48.724;9.104;2023-02-03T12:52:31;0.30;;;0.30;;
75634;SDS011;64227;48.724;9.104;2023-02-03T12:55:00;0.30;;;0.25;;
75634;SDS011;64227;48.724;9.104;2023-02-03T12:57:35;0.52;;;0.28;;
75634;SDS011;64227;48.724;9.104;2023-02-03T13:08:10;0.20;;;0.20;;
75634;SDS011;64227;48.724;9.104;2023-02-03T13:10:44;0.50;;;0.25;;
75634;SDS011;64227;48.724;9.104;2023-02-03T13:13:13;0.20;;;0.20;;
75634;SDS011;64227;48.724;9.104;2023-02-03T13:15:42;0.52;;;0.30;;
75634;SDS011;64227;48.724;9.104;2023-02-03T13:20:39;1.45;;;0.20;;
75634;SDS011;64227;48.724;9.104;2023-02-03T13:23:05;0.22;;;0.22;;
75634;SDS011;64227;48.724;9.104;2023-02-03T13:25:41;0.25;;;0.22;;
75634;SDS011;64227;48.724;9.104;2023-02-03T13:28:28;0.60;;;0.32;;
75634;SDS011;64227;48.724;9.104;2023-02-03T13:38:29;0.63;;;0.50;;
75634;SDS011;64227;48.724;9.104;2023-02-03T13:41:21;0.20;;;0.20;;
75634;SDS011;64227;48.724;9.104;2023-02-03T13:44:06;0.43;;;0.20;;
75634;SDS011;64227;48.724;9.104;2023-02-03T13:46:37;0.13;;;0.13;;
75634;SDS011;64227;48.724;9.104;2023-02-03T13:49:03;0.50;;;0.50;;
75634;SDS011;64227;48.724;9.104;2023-02-03T13:51:31;0.63;;;0.40;;
75634;SDS011;64227;48.724;9.104;2023-02-03T13:54:13;0.20;;;0.20;;
75634;SDS011;64227;48.724;9.104;2023-02-03T13:56:41;2.08;;;0.60;;
75634;SDS011;64227;48.724;9.104;2023-02-03T14:01:38;0.30;;;0.30;;
75634;SDS011;64227;48.724;9.104;2023-02-03T14:04:05;0.55;;;0.30;;
75634;SDS011;64227;48.724;9.104;2023-02-03T14:08:59;0.43;;;0.30;;
75634;SDS011;64227;48.724;9.104;2023-02-03T14:16:28;1.35;;;0.20;;
75634;SDS011;64227;48.724;9.104;2023-02-03T14:18:58;1.20;;;0.30;;
75634;SDS011;64227;48.724;9.104;2023-02-03T14:21:24;0.40;;;0.27;;
75634;SDS011;64227;48.724;9.104;2023-02-03T14:23:55;0.30;;;0.30;;
75634;SDS011;64227;48.724;9.104;2023-02-03T14:26:30;0.30;;;0.30;;
75634;SDS011;64227;48.724;9.104;2023-02-03T14:28:58;0.10;;;0.10;;
75634;SDS011;64227;48.724;9.104;2023-02-03T14:31:24;0.57;;;0.40;;
75634;SDS011;64227;48.724;9.104;2023-02-03T14:33:52;0.28;;;0.28;;
75634;SDS011;64227;48.724;9.104;2023-02-03T14:38:56;0.47;;;0.30;;
75634;SDS011;64227;48.724;9.104;2023-02-03T14:41:37;0.65;;;0.30;;
75634;SDS011;64227;48.724;9.104;2023-02-03T14:49:30;0.47;;;0.30;;
75634;SDS011;64227;48.724;9.104;2023-02-03T14:52:14;0.65;;;0.30;;
75634;SDS011;64227;48.724;9.104;2023-02-03T14:58:28;0.20;;;0.20;;
75634;SDS011;64227;48.724;9.104;2023-02-03T15:00:55;0.88;;;0.30;;
75634;SDS011;64227;48.724;9.104;2023-02-03T15:03:21;0.25;;;0.20;;
75634;SDS011;64227;48.724;9.104;2023-02-03T15:11:14;0.90;;;0.32;;
75634;SDS011;64227;48.724;9.104;2023-02-03T15:13:54;0.35;;;0.20;;
75634;SDS011;64227;48.724;9.104;2023-02-03T15:16:22;1.80;;;0.28;;
75634;SDS011;64227;48.724;9.104;2023-02-03T15:18:53;0.30;;;0.30;;
75634;SDS011;64227;48.724;9.104;2023-02-03T15:21:19;0.85;;;0.20;;
75634;SDS011;64227;48.724;9.104;2023-02-03T15:23:45;0.30;;;0.30;;
75634;SDS011;64227;48.724;9.104;2023-02-03T15:26:17;0.20;;;0.20;;
75634;SDS011;64227;48.724;9.104;2023-02-03T15:28:52;0.85;;;0.22;;
75634;SDS011;64227;48.724;9.104;2023-02-03T15:33:45;0.55;;;0.40;;
75634;SDS011;64227;48.724;9.104;2023-02-03T15:36:15;0.30;;;0.30;;
75634;SDS011;64227;48.724;9.104;2023-02-03T15:38:44;0.63;;;0.30;;
75634;SDS011;64227;48.724;9.104;2023-02-03T15:41:23;0.20;;;0.20;;
75634;SDS011;64227;48.724;9.104;2023-02-03T15:43:50;0.30;;;0.30;;
75634;SDS011;64227;48.724;9.104;2023-02-03T15:49:13;0.63;;;0.52;;
75634;SDS011;64227;48.724;9.104;2023-02-03T15:52:23;0.70;;;0.30;;
75634;SDS011;64227;48.724;9.104;2023-02-03T15:54:35;2.05;;;0.60;;
75634;SDS011;64227;48.724;9.104;2023-02-03T15:57:14;0.20;;;0.20;;
75634;SDS011;64227;48.724;9.104;2023-02-03T15:59:42;0.20;;;0.20;;
75634;SDS011;64227;48.724;9.104;2023-02-03T16:02:16;0.20;;;0.20;;
75634;SDS011;64227;48.724;9.104;2023-02-03T16:04:43;0.65;;;0.40;;
75634;SDS011;64227;48.724;9.104;2023-02-03T16:07:14;0.60;;;0.35;;
75634;SDS011;64227;48.724;9.104;2023-02-03T16:09:42;0.40;;;0.40;;
75634;SDS011;64227;48.724;9.104;2023-02-03T16:12:13;0.53;;;0.50;;
75634;SDS011;64227;48.724;9.104;2023-02-03T16:14:40;0.50;;;0.50;;
75634;SDS011;64227;48.724;9.104;2023-02-03T16:17:14;0.45;;;0.32;;
75634;SDS011;64227;48.724;9.104;2023-02-03T16:19:46;0.75;;;0.40;;
75634;SDS011;64227;48.724;9.104;2023-02-03T16:22:34;0.75;;;0.60;;
75634;SDS011;64227;48.724;9.104;2023-02-03T16:33:36;0.55;;;0.40;;
75634;SDS011;64227;48.724;9.104;2023-02-03T16:36:20;0.75;;;0.20;;
75634;SDS011;64227;48.724;9.104;2023-02-03T16:39:05;0.32;;;0.28;;
75634;SDS011;64227;48.724;9.104;2023-02-03T16:41:52;1.55;;;0.35;;
75634;SDS011;64227;48.724;9.104;2023-02-03T16:44:36;1.00;;;0.50;;
75634;SDS011;64227;48.724;9.104;2023-02-03T16:47:23;0.30;;;0.30;;
75634;SDS011;64227;48.724;9.104;2023-02-03T16:50:11;0.50;;;0.50;;
75634;SDS011;64227;48.724;9.104;2023-02-03T16:52:56;0.20;;;0.20;;
75634;SDS011;64227;48.724;9.104;2023-02-03T16:55:21;0.30;;;0.30;;
75634;SDS011;64227;48.724;9.104;2023-02-03T16:57:47;0.20;;;0.20;;
75634;SDS011;64227;48.724;9.104;2023-02-03T17:00:13;0.52;;;0.30;;
75634;SDS011;64227;48.724;9.104;2023-02-03T17:02:38;0.30;;;0.30;;
75634;SDS011;64227;48.724;9.104;2023-02-03T17:05:04;0.30;;;0.20;;
75634;SDS011;64227;48.724;9.104;2023-02-03T17:07:29;0.20;;;0.20;;
75634;SDS011;64227;48.724;9.104;2023-02-03T17:09:55;0.40;;;0.30;;
75634;SDS011;64227;48.724;9.104;2023-02-03T17:12:20;0.53;;;0.23;;
75634;SDS011;64227;48.724;9.104;2023-02-03T17:14:45;0.60;;;0.35;;